Time;durP1;ratioP1;P1;durP2;ratioP2;P2;SDS_P1;SDS_P2;PMS_P1;PMS_P2;Temp;Humidity;BMP_temperature;BMP_pressure;BME280_temperature;BME280_humidity;BME280_pressure;Samples;Min_cycle;Max_cycle;Signal;HPM_P1;HPM_P2
2023/03/19 00:02:18;;;;;;;8.50;7.40;;;11.40;99.90;;;;;;5043129;28;20603;-65
2023/03/19 00:04:45;;;;;;;6.63;6.23;;;11.40;99.90;;;;;;5051428;28;20522;-65
2023/03/19 00:07:11;;;;;;;6.83;6.33;;;11.30;99.90;;;;;;5040956;28;20286;-65
2023/03/19 00:09:36;;;;;;;6.07;5.60;;;11.30;99.90;;;;;;5031120;28;20168;-65
2023/03/19 00:12:02;;;;;;;6.33;5.90;;;11.30;99.90;;;;;;5039300;28;20718;-65
2023/03/19 00:14:28;;;;;;;6.07;5.70;;;11.20;99.90;;;;;;5051273;28;20198;-65
2023/03/19 00:16:53;;;;;;;5.97;5.67;;;11.20;99.90;;;;;;5044228;28;20184;-65
2023/03/19 00:19:19;;;;;;;5.20;5.00;;;11.10;99.90;;;;;;5030991;28;20186;-65
2023/03/19 00:21:45;;;;;;;6.33;5.77;;;11.10;99.90;;;;;;5035810;28;20281;-65
2023/03/19 00:24:11;;;;;;;6.00;5.70;;;10.90;99.90;;;;;;5051169;28;20182;-65
2023/03/19 00:26:36;;;;;;;5.33;4.77;;;10.90;99.90;;;;;;5047663;28;20650;-65
2023/03/19 00:29:03;;;;;;;6.07;5.67;;;10.80;99.90;;;;;;5031213;28;20183;-65
2023/03/19 00:31:29;;;;;;;6.27;5.87;;;10.70;99.90;;;;;;5033622;28;20187;-64
2023/03/19 00:33:58;;;;;;;5.97;5.57;;;10.70;99.90;;;;;;5054185;28;20194;-65
2023/03/19 00:36:26;;;;;;;8.10;7.50;;;10.60;99.90;;;;;;5054323;28;20522;-65
2023/03/19 00:38:51;;;;;;;7.00;6.50;;;10.50;99.90;;;;;;5035043;28;20176;-65
2023/03/19 00:41:19;;;;;;;6.60;6.10;;;10.50;99.90;;;;;;5034608;28;20168;-65
2023/03/19 00:43:45;;;;;;;6.90;6.33;;;10.50;99.90;;;;;;5053769;28;20201;-65
2023/03/19 00:46:11;;;;;;;6.30;5.90;;;10.40;99.90;;;;;;5054865;28;20257;-65
2023/03/19 00:48:36;;;;;;;6.60;6.20;;;10.40;99.90;;;;;;5036864;28;20633;-65
2023/03/19 00:51:08;;;;;;;6.13;5.70;;;10.30;99.90;;;;;;5034470;28;20266;-65
2023/03/19 00:53:38;;;;;;;6.87;6.13;;;10.30;99.90;;;;;;5050752;28;20214;-64
2023/03/19 00:56:04;;;;;;;6.27;5.67;;;10.20;99.90;;;;;;5054720;28;20174;-64
2023/03/19 00:58:30;;;;;;;9.40;7.10;;;10.10;99.90;;;;;;5038677;28;20176;-65
2023/03/19 01:00:55;;;;;;;6.37;6.07;;;10.10;99.90;;;;;;5034072;28;20178;-64
2023/03/19 01:03:21;;;;;;;6.97;6.57;;;10.00;99.90;;;;;;5047827;28;20211;-65
2023/03/19 01:05:50;;;;;;;5.63;5.23;;;9.90;99.90;;;;;;5054499;28;20541;-65
2023/03/19 01:08:17;;;;;;;6.30;6.00;;;9.90;99.90;;;;;;5041651;28;20187;-65
2023/03/19 01:10:43;;;;;;;5.63;5.23;;;9.90;99.90;;;;;;5033953;28;20583;-65
2023/03/19 01:13:09;;;;;;;6.07;5.50;;;9.90;99.90;;;;;;5044881;28;20221;-65
2023/03/19 01:15:36;;;;;;;6.23;5.47;;;9.90;99.90;;;;;;5054095;28;20301;-65
2023/03/19 01:18:02;;;;;;;6.17;5.77;;;9.90;99.90;;;;;;5044504;28;20187;-65
2023/03/19 01:20:27;;;;;;;6.77;6.33;;;9.90;99.90;;;;;;5033924;28;20171;-65
2023/03/19 01:22:53;;;;;;;7.00;6.60;;;9.90;99.90;;;;;;5041440;28;20302;-65
2023/03/19 01:25:18;;;;;;;6.67;6.10;;;9.80;99.90;;;;;;5053934;28;20191;-65
2023/03/19 01:27:45;;;;;;;6.90;6.40;;;9.80;99.90;;;;;;5047934;28;20179;-65
2023/03/19 01:30:10;;;;;;;6.13;5.73;;;9.80;99.90;;;;;;5033961;28;20633;-65
2023/03/19 01:32:36;;;;;;;4.97;4.77;;;9.80;99.90;;;;;;5037950;28;20214;-65
2023/03/19 01:35:02;;;;;;;6.27;5.80;;;9.80;99.90;;;;;;5053544;28;20214;-65
2023/03/19 01:37:28;;;;;;;9.67;5.97;;;9.80;99.90;;;;;;5049841;28;20714;-65
2023/03/19 01:39:53;;;;;;;5.70;5.30;;;9.80;99.90;;;;;;5033902;28;20175;-65
2023/03/19 01:42:19;;;;;;;6.60;6.20;;;9.80;99.90;;;;;;5033432;28;20237;-66
2023/03/19 01:44:44;;;;;;;7.00;6.47;;;9.80;99.90;;;;;;5053203;28;20183;-65
2023/03/19 01:47:26;;;;;;;7.87;7.40;;;9.90;99.90;;;;;;5052279;28;20466;-65
2023/03/19 01:49:54;;;;;;;11.73;8.50;;;9.90;99.90;;;;;;5032195;28;20184;-65
2023/03/19 01:52:22;;;;;;;7.83;7.43;;;10.00;99.90;;;;;;5013722;28;20200;-65
2023/03/19 01:54:49;;;;;;;5.63;5.33;;;10.10;99.90;;;;;;5013707;28;20196;-65
2023/03/19 01:57:16;;;;;;;6.77;6.37;;;10.20;99.90;;;;;;5013774;28;20211;-66
2023/03/19 01:59:49;;;;;;;7.10;6.60;;;10.20;99.90;;;;;;5049489;28;20179;-65
2023/03/19 02:02:30;;;;;;;7.60;7.10;;;10.30;99.90;;;;;;5053258;28;20190;-65
2023/03/19 02:05:08;;;;;;;8.23;7.73;;;10.40;99.90;;;;;;5034692;28;20186;-65
2023/03/19 02:07:35;;;;;;;6.60;6.30;;;10.40;99.90;;;;;;5033092;28;20182;-66
2023/03/19 02:10:06;;;;;;;6.37;5.97;;;10.50;99.90;;;;;;5052330;28;20562;-65
2023/03/19 02:12:31;;;;;;;6.20;5.80;;;10.50;99.90;;;;;;5053381;28;20211;-65
2023/03/19 02:14:57;;;;;;;5.73;5.43;;;10.50;99.90;;;;;;5052400;28;20248;-65
2023/03/19 02:17:23;;;;;;;6.20;5.60;;;10.50;99.90;;;;;;5051672;28;20633;-65
2023/03/19 02:20:11;;;;;;;5.80;5.50;;;10.50;99.90;;;;;;5036108;28;20210;-65
2023/03/19 02:22:42;;;;;;;6.00;5.53;;;10.50;99.90;;;;;;5033043;28;20844;-65
2023/03/19 02:25:18;;;;;;;6.20;5.80;;;10.60;99.90;;;;;;5051712;28;20194;-65
2023/03/19 02:27:44;;;;;;;6.57;5.97;;;10.60;99.90;;;;;;5052766;28;20178;-65
2023/03/19 02:30:27;;;;;;;6.07;5.53;;;10.60;99.90;;;;;;5033811;28;20179;-65
2023/03/19 02:32:53;;;;;;;5.93;5.53;;;10.60;99.90;;;;;;5032757;28;20249;-65
2023/03/19 02:35:19;;;;;;;6.00;5.60;;;10.60;99.90;;;;;;5051667;28;20198;-65
2023/03/19 02:37:45;;;;;;;5.83;5.53;;;10.60;99.90;;;;;;5052807;28;20167;-65
2023/03/19 02:40:19;;;;;;;6.00;5.43;;;10.70;99.90;;;;;;5034569;28;20649;-65
2023/03/19 02:42:45;;;;;;;6.13;5.67;;;10.70;99.90;;;;;;5032692;28;20738;-65
2023/03/19 02:45:11;;;;;;;5.40;5.00;;;10.70;99.90;;;;;;5049315;28;20182;-65
2023/03/19 02:47:37;;;;;;;5.83;5.43;;;10.80;99.90;;;;;;5052543;28;20548;-65
2023/03/19 02:50:02;;;;;;;5.87;5.43;;;10.80;99.90;;;;;;5036642;28;20180;-65
2023/03/19 02:52:28;;;;;;;5.37;5.07;;;10.70;99.90;;;;;;5032366;28;20752;-65
2023/03/19 02:54:54;;;;;;;5.73;5.10;;;10.80;99.90;;;;;;5045464;28;20199;-65
2023/03/19 02:57:20;;;;;;;5.90;5.40;;;10.70;99.90;;;;;;5050973;28;20185;-65
2023/03/19 02:59:45;;;;;;;5.00;4.80;;;10.70;99.90;;;;;;5051540;28;20639;-65
2023/03/19 03:02:11;;;;;;;5.50;5.10;;;10.80;99.90;;;;;;5052122;28;20201;-65
2023/03/19 03:04:37;;;;;;;5.27;4.90;;;10.70;99.90;;;;;;5041678;28;20183;-65
2023/03/19 03:07:05;;;;;;;6.03;5.47;;;10.70;99.90;;;;;;5032155;28;20238;-65
2023/03/19 03:09:30;;;;;;;5.80;5.40;;;10.70;99.90;;;;;;5040516;28;20181;-66
2023/03/19 03:11:56;;;;;;;5.70;5.37;;;10.70;99.90;;;;;;5052000;28;20246;-65
2023/03/19 03:14:22;;;;;;;5.67;5.37;;;10.70;99.90;;;;;;5044431;28;20245;-65
2023/03/19 03:16:47;;;;;;;5.40;5.10;;;10.70;99.90;;;;;;5030943;28;20172;-65
2023/03/19 03:19:13;;;;;;;6.00;5.60;;;10.70;99.90;;;;;;5036963;28;20175;-65
2023/03/19 03:21:40;;;;;;;5.33;4.97;;;10.60;99.90;;;;;;5051895;28;20186;-64
2023/03/19 03:24:06;;;;;;;5.73;5.33;;;10.70;99.90;;;;;;5048007;28;20176;-64
2023/03/19 03:26:33;;;;;;;7.03;5.47;;;10.60;99.90;;;;;;5031794;28;20182;-65
2023/03/19 03:28:59;;;;;;;6.10;5.80;;;10.60;99.90;;;;;;5034010;28;20176;-64
2023/03/19 03:31:25;;;;;;;6.10;5.80;;;10.60;99.90;;;;;;5051212;28;20174;-63
2023/03/19 03:33:51;;;;;;;6.53;5.57;;;10.60;99.90;;;;;;5050767;28;20220;-64
2023/03/19 03:36:17;;;;;;;6.10;5.73;;;10.50;99.90;;;;;;5031974;28;20175;-64
2023/03/19 03:38:43;;;;;;;5.40;5.17;;;10.50;99.90;;;;;;5032000;28;20629;-65
2023/03/19 03:41:09;;;;;;;5.80;5.40;;;10.50;99.90;;;;;;5050129;28;20183;-65
2023/03/19 03:43:34;;;;;;;7.10;6.60;;;10.40;99.90;;;;;;5051391;28;20293;-66
2023/03/19 03:46:00;;;;;;;7.47;6.97;;;10.40;99.90;;;;;;5033981;28;20638;-66
2023/03/19 03:48:25;;;;;;;5.97;5.67;;;10.40;99.90;;;;;;5030321;28;20262;-65
2023/03/19 03:50:51;;;;;;;6.00;5.70;;;10.30;99.90;;;;;;5046452;28;20189;-65
2023/03/19 03:53:16;;;;;;;5.90;5.43;;;10.30;99.90;;;;;;5051275;28;20669;-66
2023/03/19 03:55:42;;;;;;;5.70;5.30;;;10.20;99.90;;;;;;5037369;28;20215;-65
2023/03/19 03:58:08;;;;;;;5.97;5.47;;;10.20;99.90;;;;;;5031911;28;20226;-65
2023/03/19 04:00:34;;;;;;;5.23;4.93;;;10.20;99.90;;;;;;5030386;28;20414;-65
2023/03/19 04:03:00;;;;;;;5.77;5.47;;;10.10;99.90;;;;;;5037006;28;20672;-66
2023/03/19 04:05:26;;;;;;;6.87;6.27;;;10.10;99.90;;;;;;5050316;28;20209;-66
2023/03/19 04:07:51;;;;;;;6.60;6.10;;;10.10;99.90;;;;;;5048599;28;20186;-65
2023/03/19 04:10:17;;;;;;;6.60;6.27;;;10.10;99.90;;;;;;5034683;28;20167;-65
2023/03/19 04:12:44;;;;;;;6.20;5.73;;;10.00;99.90;;;;;;5038737;28;20202;-65
2023/03/19 04:15:11;;;;;;;5.37;5.07;;;9.90;99.90;;;;;;5054920;28;20281;-65
2023/03/19 04:17:39;;;;;;;5.87;5.57;;;9.90;99.90;;;;;;5052443;28;20176;-65
2023/03/19 04:20:06;;;;;;;5.63;5.33;;;9.80;99.90;;;;;;5035060;28;20194;-65
2023/03/19 04:22:32;;;;;;;5.13;4.93;;;9.80;99.90;;;;;;5035617;28;20233;-64
2023/03/19 04:24:57;;;;;;;6.03;5.67;;;9.80;99.90;;;;;;5054741;28;20175;-65
2023/03/19 04:27:23;;;;;;;5.47;5.27;;;9.80;99.90;;;;;;5055117;28;20632;-65
2023/03/19 04:29:49;;;;;;;6.13;5.83;;;9.80;99.90;;;;;;5035228;28;20183;-65
2023/03/19 04:32:14;;;;;;;7.27;6.87;;;9.70;99.90;;;;;;5035160;28;20274;-65
2023/03/19 04:34:40;;;;;;;8.77;8.37;;;9.80;99.90;;;;;;5051841;28;20195;-65
2023/03/19 04:37:09;;;;;;;8.40;7.90;;;9.80;99.90;;;;;;5054941;28;20199;-65
2023/03/19 04:39:35;;;;;;;7.20;6.63;;;9.90;99.90;;;;;;5037840;28;20209;-66
2023/03/19 04:42:00;;;;;;;6.00;5.70;;;9.90;99.90;;;;;;5035029;28;20230;-65
2023/03/19 04:44:26;;;;;;;5.40;5.10;;;10.10;99.90;;;;;;5049186;28;20225;-65
2023/03/19 04:46:52;;;;;;;5.77;5.47;;;10.10;99.90;;;;;;5054784;28;20698;-65
2023/03/19 04:49:18;;;;;;;5.63;5.43;;;10.20;99.90;;;;;;5041165;28;20262;-65
2023/03/19 04:51:43;;;;;;;5.83;5.50;;;10.30;99.90;;;;;;5034668;28;20187;-66
2023/03/19 04:54:09;;;;;;;18.00;6.50;;;10.40;99.90;;;;;;5034912;28;20196;-65
2023/03/19 04:56:35;;;;;;;6.37;6.07;;;10.50;99.90;;;;;;5034899;28;20175;-65
2023/03/19 04:59:00;;;;;;;5.93;5.53;;;10.60;99.90;;;;;;5044001;28;20175;-65
2023/03/19 05:01:26;;;;;;;6.00;5.60;;;10.70;99.90;;;;;;5054027;28;20171;-65
2023/03/19 05:03:52;;;;;;;7.33;6.83;;;10.70;99.90;;;;;;5046412;28;20276;-66
2023/03/19 05:06:18;;;;;;;7.67;7.33;;;10.80;99.90;;;;;;5034386;28;20172;-66
2023/03/19 05:08:45;;;;;;;4.70;4.40;;;10.90;99.90;;;;;;5040327;28;20175;-65
2023/03/19 05:11:11;;;;;;;5.90;5.40;;;10.90;99.90;;;;;;5053752;28;20174;-65
2023/03/19 05:13:36;;;;;;;5.33;4.90;;;10.90;99.90;;;;;;5049330;28;20199;-65
2023/03/19 05:16:02;;;;;;;5.00;4.70;;;10.90;99.90;;;;;;5034327;28;20186;-65
2023/03/19 05:18:28;;;;;;;5.93;5.53;;;10.90;99.90;;;;;;5036785;28;20172;-65
2023/03/19 05:20:54;;;;;;;6.40;6.00;;;10.90;99.90;;;;;;5053646;28;20652;-65
2023/03/19 05:23:20;;;;;;;5.40;5.10;;;10.90;99.90;;;;;;5052538;28;20191;-65
2023/03/19 05:25:46;;;;;;;6.00;5.70;;;10.90;99.90;;;;;;5034130;28;20263;-65
2023/03/19 05:28:12;;;;;;;6.40;5.90;;;10.90;99.90;;;;;;5034077;28;20229;-65
2023/03/19 05:30:38;;;;;;;5.57;5.27;;;10.90;99.90;;;;;;5033891;28;20172;-65
2023/03/19 05:33:04;;;;;;;6.13;5.57;;;10.80;99.90;;;;;;5033793;28;20581;-66
2023/03/19 05:35:30;;;;;;;5.50;5.20;;;10.80;99.90;;;;;;5049333;28;20211;-65
2023/03/19 05:37:56;;;;;;;4.87;4.67;;;10.80;99.90;;;;;;5033870;28;20595;-65
2023/03/19 05:40:22;;;;;;;5.23;4.93;;;10.70;99.90;;;;;;5049495;28;20207;-65
2023/03/19 05:42:49;;;;;;;6.93;6.33;;;10.70;99.90;;;;;;5053669;28;20217;-65
2023/03/19 05:45:16;;;;;;;5.97;5.63;;;10.70;99.90;;;;;;5038866;28;20673;-65
2023/03/19 05:47:42;;;;;;;5.80;5.50;;;10.60;99.90;;;;;;5033792;28;20168;-65
2023/03/19 05:50:08;;;;;;;6.37;6.00;;;10.70;99.90;;;;;;5042567;28;20201;-65
2023/03/19 05:52:34;;;;;;;5.07;4.87;;;10.70;99.90;;;;;;5036190;28;20611;-65
2023/03/19 05:55:00;;;;;;;6.27;5.77;;;10.70;99.90;;;;;;5033379;28;20203;-65
2023/03/19 05:57:25;;;;;;;5.73;5.47;;;10.70;99.90;;;;;;5033398;28;20175;-65
2023/03/19 05:59:51;;;;;;;6.00;5.70;;;10.70;99.90;;;;;;5042349;28;20183;-65
2023/03/19 06:02:17;;;;;;;5.37;5.17;;;10.70;99.90;;;;;;5053139;28;20194;-65
2023/03/19 06:04:43;;;;;;;6.20;5.83;;;10.70;99.90;;;;;;5045479;28;20641;-65
2023/03/19 06:07:09;;;;;;;6.00;5.60;;;10.70;99.90;;;;;;5032920;28;20586;-65
2023/03/19 06:09:34;;;;;;;5.57;5.30;;;10.70;99.90;;;;;;5032946;28;20176;-65
2023/03/19 06:12:00;;;;;;;5.90;5.60;;;10.70;99.90;;;;;;5033224;28;20701;-65
2023/03/19 06:14:26;;;;;;;5.73;5.43;;;10.70;99.90;;;;;;5037069;28;20195;-66
2023/03/19 06:16:51;;;;;;;5.33;5.13;;;10.70;99.90;;;;;;5053128;28;20174;-66
2023/03/19 06:19:17;;;;;;;6.60;6.20;;;10.80;99.90;;;;;;5051965;28;20225;-65
2023/03/19 06:21:43;;;;;;;6.77;6.30;;;10.80;99.90;;;;;;5053070;28;20633;-65
2023/03/19 06:24:08;;;;;;;6.07;5.67;;;10.80;99.90;;;;;;5051938;28;20178;-66
2023/03/19 06:26:34;;;;;;;5.67;5.37;;;10.90;99.90;;;;;;5032856;28;20185;-66
2023/03/19 06:29:00;;;;;;;5.83;5.43;;;10.90;99.90;;;;;;5032266;28;20537;-65
2023/03/19 06:31:26;;;;;;;5.57;5.37;;;10.80;99.90;;;;;;5051228;28;20443;-65
2023/03/19 06:33:52;;;;;;;5.83;5.53;;;10.90;99.90;;;;;;5052841;28;20583;-65
2023/03/19 06:36:18;;;;;;;5.30;5.00;;;10.90;99.90;;;;;;5034832;28;20171;-65
2023/03/19 06:38:44;;;;;;;5.30;5.00;;;10.90;99.90;;;;;;5032718;28;20168;-65
2023/03/19 06:41:09;;;;;;;4.77;4.57;;;11.00;99.90;;;;;;5047685;28;20183;-65
2023/03/19 06:43:36;;;;;;;5.70;5.40;;;11.10;99.90;;;;;;5052736;28;20274;-65
2023/03/19 06:46:03;;;;;;;7.07;5.47;;;11.10;99.90;;;;;;5038319;28;20183;-66
2023/03/19 06:48:28;;;;;;;4.77;4.57;;;11.10;99.90;;;;;;5032575;28;20564;-64
2023/03/19 06:50:54;;;;;;;5.43;5.13;;;11.20;99.90;;;;;;5032376;28;20175;-66
2023/03/19 06:53:20;;;;;;;5.83;5.53;;;11.20;99.90;;;;;;5032332;28;20191;-65
2023/03/19 06:55:45;;;;;;;5.07;4.87;;;11.20;99.90;;;;;;5042742;28;20206;-65
2023/03/19 06:58:11;;;;;;;5.90;5.60;;;11.30;99.90;;;;;;5052304;28;20198;-66
2023/03/19 07:00:37;;;;;;;6.13;5.83;;;11.40;99.90;;;;;;5052406;28;20186;-65
2023/03/19 07:03:02;;;;;;;6.53;6.20;;;11.50;99.90;;;;;;5053587;28;20191;-65
2023/03/19 07:05:28;;;;;;;6.23;5.97;;;11.60;99.90;;;;;;5048395;28;20187;-66
2023/03/19 07:07:54;;;;;;;7.87;7.47;;;11.70;99.90;;;;;;5041464;28;20172;-66
2023/03/19 07:10:20;;;;;;;5.87;5.47;;;11.80;99.90;;;;;;5036993;28;20190;-65
2023/03/19 07:12:46;;;;;;;5.37;5.07;;;11.90;99.90;;;;;;5051770;28;20211;-66
2023/03/19 07:15:12;;;;;;;4.73;4.50;;;12.10;99.90;;;;;;5047387;28;20204;-65
2023/03/19 07:17:38;;;;;;;4.80;4.60;;;12.20;99.90;;;;;;5031725;28;20175;-65
2023/03/19 07:20:05;;;;;;;5.87;5.57;;;12.30;99.90;;;;;;5033834;28;20186;-65
2023/03/19 07:22:30;;;;;;;6.03;5.73;;;12.40;99.90;;;;;;5051728;28;20702;-65
2023/03/19 07:24:56;;;;;;;5.70;5.40;;;12.40;99.90;;;;;;5050725;28;20186;-66
2023/03/19 07:27:22;;;;;;;6.87;6.40;;;12.50;99.90;;;;;;5031571;28;20210;-65
2023/03/19 07:29:47;;;;;;;5.40;5.00;;;12.40;99.90;;;;;;5031494;28;20561;-65
2023/03/19 07:32:13;;;;;;;5.63;5.10;;;12.40;99.90;;;;;;5032627;28;20221;-66
2023/03/19 07:34:39;;;;;;;6.23;5.93;;;12.40;99.90;;;;;;5031551;28;20234;-66
2023/03/19 07:37:05;;;;;;;4.80;4.50;;;12.40;99.90;;;;;;5048791;28;20183;-65
2023/03/19 07:39:30;;;;;;;7.40;6.90;;;12.60;99.90;;;;;;5050530;28;20171;-65
2023/03/19 07:41:56;;;;;;;8.40;7.60;;;12.80;99.90;;;;;;5048886;28;20202;-64
2023/03/19 07:44:22;;;;;;;5.97;5.53;;;13.00;99.90;;;;;;5051044;28;20191;-65
2023/03/19 07:46:47;;;;;;;5.40;5.10;;;13.20;99.90;;;;;;5037808;28;20236;-64
2023/03/19 07:49:13;;;;;;;7.37;6.87;;;13.50;99.90;;;;;;5031099;28;20664;-65
2023/03/19 07:51:38;;;;;;;4.80;4.50;;;13.70;99.90;;;;;;5043148;28;20183;-65
2023/03/19 07:54:04;;;;;;;5.17;4.73;;;13.90;99.90;;;;;;5051388;28;20229;-65
2023/03/19 07:56:30;;;;;;;4.60;4.20;;;14.00;99.90;;;;;;5040308;28;20262;-65
2023/03/19 07:58:55;;;;;;;4.40;4.20;;;14.10;99.90;;;;;;5030788;28;20172;-65
2023/03/19 08:01:21;;;;;;;4.23;3.93;;;14.30;99.90;;;;;;5039103;28;20185;-65
2023/03/19 08:03:47;;;;;;;4.53;4.23;;;14.60;99.90;;;;;;5040031;28;20199;-65
2023/03/19 08:06:13;;;;;;;4.33;4.10;;;15.00;99.90;;;;;;5032385;28;20532;-66
2023/03/19 08:08:39;;;;;;;4.53;4.23;;;15.50;99.90;;;;;;5031239;28;20179;-65
2023/03/19 08:11:05;;;;;;;4.20;4.00;;;15.80;99.90;;;;;;5035667;28;20183;-65
2023/03/19 08:13:31;;;;;;;4.47;4.27;;;16.10;99.90;;;;;;5051491;28;20260;-65
2023/03/19 08:15:57;;;;;;;4.37;4.07;;;16.30;99.90;;;;;;5047232;28;20207;-66
2023/03/19 08:18:22;;;;;;;4.33;4.13;;;16.30;99.90;;;;;;5031263;28;20222;-65
2023/03/19 08:20:48;;;;;;;4.07;3.87;;;16.30;99.90;;;;;;5032075;28;20577;-65
2023/03/19 08:23:14;;;;;;;4.40;4.10;;;16.20;99.90;;;;;;5050577;28;20247;-65
2023/03/19 08:25:40;;;;;;;4.57;4.27;;;16.20;99.90;;;;;;5050197;28;20185;-65
2023/03/19 08:28:08;;;;;;;4.40;4.10;;;16.10;99.90;;;;;;5011439;28;20176;-65
2023/03/19 08:30:35;;;;;;;4.17;3.90;;;16.00;99.90;;;;;;5011023;28;20183;-65
2023/03/19 08:33:00;;;;;;;4.40;4.20;;;15.90;99.90;;;;;;5049198;28;20206;-65
2023/03/19 08:35:26;;;;;;;4.30;4.00;;;15.70;99.90;;;;;;5050617;28;20207;-66
2023/03/19 08:37:53;;;;;;;4.37;4.17;;;15.80;99.90;;;;;;5033708;28;20269;-66
2023/03/19 08:40:19;;;;;;;4.33;4.00;;;15.90;99.90;;;;;;5030634;28;20171;-65
2023/03/19 08:42:44;;;;;;;4.17;3.97;;;15.90;99.90;;;;;;5046417;28;20206;-64
2023/03/19 08:45:12;;;;;;;4.37;4.07;;;16.00;99.90;;;;;;5050704;28;20528;-65
2023/03/19 08:47:38;;;;;;;3.97;3.77;;;16.30;99.90;;;;;;5035172;28;20186;-66
2023/03/19 08:50:04;;;;;;;4.80;4.50;;;16.40;99.90;;;;;;5030430;28;20179;-65
2023/03/19 08:52:30;;;;;;;5.33;5.03;;;16.70;99.90;;;;;;5043976;28;20329;-65
2023/03/19 08:54:55;;;;;;;6.47;4.20;;;17.10;99.90;;;;;;5054531;28;20373;-65
2023/03/19 08:57:21;;;;;;;3.80;3.60;;;17.40;99.90;;;;;;5046713;28;20597;-66
2023/03/19 08:59:46;;;;;;;3.50;3.30;;;17.60;99.90;;;;;;5034751;28;20176;-64
2023/03/19 09:02:12;;;;;;;4.00;3.80;;;17.70;99.90;;;;;;5054323;28;20675;-65
2023/03/19 09:04:42;;;;;;;3.77;3.57;;;17.80;99.90;;;;;;5054382;28;20186;-65
2023/03/19 09:07:12;;;;;;;3.60;3.40;;;17.80;99.90;;;;;;5053314;28;20190;-65
2023/03/19 09:09:38;;;;;;;4.40;4.00;;;17.80;99.90;;;;;;5054027;28;20203;-66
2023/03/19 09:12:06;;;;;;;4.03;3.73;;;18.10;99.90;;;;;;5035300;28;20219;-65
2023/03/19 09:14:32;;;;;;;3.50;3.30;;;18.50;99.90;;;;;;5034173;28;20286;-65
2023/03/19 09:16:57;;;;;;;3.47;3.27;;;19.00;99.90;;;;;;5035323;28;20653;-65
2023/03/19 09:19:23;;;;;;;5.03;4.75;;;19.60;99.90;;;;;;5033723;28;20221;-66
2023/03/19 09:21:49;;;;;;;4.40;4.20;;;20.20;99.90;;;;;;5048733;28;20203;-65
2023/03/19 09:24:15;;;;;;;3.72;3.42;;;20.60;99.90;;;;;;5052441;28;20537;-65
2023/03/19 09:26:40;;;;;;;3.97;3.78;;;21.00;99.90;;;;;;5053942;28;20189;-65
2023/03/19 09:29:06;;;;;;;3.55;3.40;;;21.20;99.90;;;;;;5051534;28;20174;-65
2023/03/19 09:31:32;;;;;;;2.97;2.88;;;21.30;99.90;;;;;;5033681;28;20172;-65
2023/03/19 09:33:58;;;;;;;4.13;3.75;;;21.20;99.90;;;;;;5032484;28;20176;-66
2023/03/19 09:36:24;;;;;;;4.25;4.05;;;21.00;99.90;;;;;;5034806;28;20258;-66
2023/03/19 09:38:50;;;;;;;4.50;4.30;;;20.50;99.90;;;;;;5033792;28;20230;-65
2023/03/19 09:41:34;;;;;;;4.33;4.13;;;20.00;99.90;;;;;;5051456;28;20225;-65
2023/03/19 09:44:26;;;;;;;4.97;4.50;;;19.80;99.90;;;;;;5053670;28;20207;-65
2023/03/19 09:47:17;;;;;;;5.80;5.50;;;19.50;99.90;;;;;;5013946;28;20165;-65
2023/03/19 09:49:46;;;;;;;5.63;5.33;;;18.90;99.90;;;;;;5018828;28;20217;-65
2023/03/19 09:52:14;;;;;;;4.40;4.10;;;18.50;99.90;;;;;;5044394;28;20218;-64
2023/03/19 09:54:51;;;;;;;4.87;4.60;;;18.10;99.90;;;;;;5033465;28;20235;-65
2023/03/19 09:57:17;;;;;;;3.87;3.57;;;17.80;99.90;;;;;;5033673;28;20172;-65
2023/03/19 09:59:43;;;;;;;4.77;4.37;;;17.50;99.90;;;;;;5032519;28;20186;-65
2023/03/19 10:02:20;;;;;;;4.40;4.10;;;17.10;99.90;;;;;;5030871;28;20187;-65
2023/03/19 10:05:05;;;;;;;4.47;4.17;;;16.90;99.90;;;;;;5046990;28;20190;-65
2023/03/19 10:08:04;;;;;;;4.37;4.17;;;16.80;99.90;;;;;;5052178;28;20660;-65
2023/03/19 10:10:32;;;;;;;5.77;5.47;;;16.80;99.90;;;;;;5011272;28;20207;-65
2023/03/19 10:13:14;;;;;;;5.00;4.70;;;16.90;99.90;;;;;;5013677;28;20638;-65
2023/03/19 10:15:43;;;;;;;4.70;4.30;;;16.90;99.90;;;;;;5025291;28;20235;-65
2023/03/19 10:18:18;;;;;;;4.33;4.00;;;16.70;99.90;;;;;;5032947;28;20178;-65
2023/03/19 10:20:53;;;;;;;4.30;4.03;;;16.70;99.90;;;;;;5050761;28;20178;-65
2023/03/19 10:24:00;;;;;;;3.90;3.70;;;16.60;99.90;;;;;;5050098;28;20197;-64
2023/03/19 10:26:33;;;;;;;4.50;4.27;;;16.50;99.90;;;;;;5009861;28;20192;-65
2023/03/19 10:29:08;;;;;;;5.07;4.57;;;16.60;99.90;;;;;;5025524;28;20227;-65
2023/03/19 10:31:41;;;;;;;4.60;4.30;;;16.60;99.90;;;;;;5052419;28;20177;-65
2023/03/19 10:34:30;;;;;;;4.57;4.27;;;16.80;99.90;;;;;;5045487;28;20166;-65
2023/03/19 10:37:19;;;;;;;4.60;4.23;;;16.70;99.90;;;;;;5052722;28;20179;-65
2023/03/19 10:39:47;;;;;;;4.20;4.00;;;16.90;99.90;;;;;;5040855;28;20175;-66
2023/03/19 10:42:52;;;;;;;4.30;4.00;;;17.20;99.90;;;;;;5032352;28;20184;-65
2023/03/19 10:45:35;;;;;;;4.00;3.80;;;17.80;99.90;;;;;;5046907;28;20190;-65
2023/03/19 10:48:03;;;;;;;4.30;4.00;;;18.20;99.90;;;;;;5052593;28;20193;-65
2023/03/19 10:50:34;;;;;;;3.67;3.37;;;18.50;99.90;;;;;;5035738;28;20206;-65
2023/03/19 10:53:36;;;;;;;4.47;4.20;;;18.60;99.90;;;;;;5032381;28;20195;-65
2023/03/19 10:56:15;;;;;;;4.23;3.93;;;18.60;99.90;;;;;;5051913;28;20225;-65
2023/03/19 10:58:59;;;;;;;3.40;3.20;;;18.30;99.90;;;;;;5052216;28;20224;-65
2023/03/19 11:01:42;;;;;;;3.80;3.60;;;18.00;99.90;;;;;;5031942;28;20225;-64
2023/03/19 11:04:15;;;;;;;3.70;3.50;;;17.50;99.90;;;;;;5031240;28;20171;-64
2023/03/19 11:06:41;;;;;;;3.80;3.40;;;17.10;99.90;;;;;;5030830;28;20164;-64
2023/03/19 11:09:06;;;;;;;3.50;3.40;;;16.70;99.90;;;;;;5033425;28;20170;-65
2023/03/19 11:11:35;;;;;;;4.00;3.80;;;16.40;99.90;;;;;;5050434;28;20227;-65
2023/03/19 11:14:15;;;;;;;4.00;3.80;;;16.20;99.90;;;;;;5040948;28;20183;-65
2023/03/19 11:16:54;;;;;;;4.50;4.30;;;16.00;99.90;;;;;;5029020;28;20182;-65
2023/03/19 11:19:26;;;;;;;4.63;4.30;;;16.00;99.90;;;;;;5027125;28;20183;-65
2023/03/19 11:22:00;;;;;;;4.57;4.33;;;15.90;99.90;;;;;;5051026;28;20599;-65
2023/03/19 11:24:26;;;;;;;4.60;4.40;;;15.80;99.90;;;;;;5049288;28;20223;-65
2023/03/19 11:26:56;;;;;;;4.33;4.13;;;15.70;99.90;;;;;;5030873;28;20629;-65
2023/03/19 11:29:22;;;;;;;4.00;3.80;;;15.60;99.90;;;;;;5031978;28;20258;-65
2023/03/19 11:32:21;;;;;;;4.43;4.23;;;15.40;99.90;;;;;;5051619;28;20194;-64
2023/03/19 11:35:15;;;;;;;6.83;5.77;;;15.20;99.90;;;;;;5049157;28;20209;-65
2023/03/19 11:37:57;;;;;;;5.97;5.57;;;15.10;99.90;;;;;;5051815;28;20330;-65
2023/03/19 11:40:43;;;;;;;6.23;5.73;;;15.10;99.90;;;;;;5042660;28;20179;-65
2023/03/19 11:43:20;;;;;;;9.13;8.43;;;15.00;99.90;;;;;;5031217;28;20207;-65
2023/03/19 11:46:01;;;;;;;5.30;5.00;;;15.00;99.90;;;;;;5042143;28;20236;-65
2023/03/19 11:48:41;;;;;;;5.13;4.83;;;15.10;99.90;;;;;;5051740;28;20174;-65
2023/03/19 11:51:10;;;;;;;5.00;4.70;;;15.40;99.90;;;;;;5036931;28;20594;-65
2023/03/19 11:53:47;;;;;;;4.50;4.30;;;15.80;99.90;;;;;;5031415;28;20187;-65
2023/03/19 11:56:13;;;;;;;4.90;4.00;;;16.30;99.90;;;;;;5030128;28;20203;-65
2023/03/19 11:59:07;;;;;;;4.43;4.23;;;16.80;99.90;;;;;;5031309;28;20174;-65
2023/03/19 12:01:44;;;;;;;4.20;4.00;;;17.40;99.90;;;;;;5041033;28;20226;-65
2023/03/19 12:04:39;;;;;;;4.53;4.33;;;18.00;99.90;;;;;;5037451;28;20207;-65
2023/03/19 12:07:40;;;;;;;3.43;3.23;;;18.70;99.90;;;;;;5049755;28;20244;-65
2023/03/19 12:10:27;;;;;;;3.63;3.42;;;20.00;99.90;;;;;;5049019;28;20257;-65
2023/03/19 12:13:28;;;;;;;4.82;4.53;;;21.60;99.90;;;;;;5033521;28;20616;-65
2023/03/19 12:16:14;;;;;;;4.93;4.63;;;22.20;99.90;;;;;;5011490;28;20200;-65
2023/03/19 12:19:10;;;;;;;4.00;3.80;;;22.20;99.90;;;;;;5028897;28;20697;-65
2023/03/19 12:21:47;;;;;;;5.20;4.90;;;22.30;99.90;;;;;;5050979;28;20206;-65
2023/03/19 12:24:16;;;;;;;4.35;4.15;;;22.90;99.90;;;;;;5049354;28;20197;-66
2023/03/19 12:27:03;;;;;;;2.63;2.53;;;23.80;99.90;;;;;;5051393;28;20193;-65
2023/03/19 12:29:51;;;;;;;2.63;2.53;;;24.30;99.90;;;;;;5038383;28;20550;-65
2023/03/19 12:32:47;;;;;;;3.33;3.05;;;23.90;99.90;;;;;;5034924;28;20263;-65
2023/03/19 12:35:17;;;;;;;2.80;2.70;;;23.10;99.90;;;;;;5055065;28;20206;-65
2023/03/19 12:38:09;;;;;;;3.35;3.13;;;22.60;99.90;;;;;;5039426;28;20660;-65
2023/03/19 12:40:40;;;;;;;4.45;4.25;;;22.20;99.90;;;;;;5014975;28;20172;-65
2023/03/19 12:43:17;;;;;;;5.32;5.13;;;21.80;99.90;;;;;;5017868;28;20188;-65
2023/03/19 12:45:49;;;;;;;7.28;6.97;;;21.70;99.90;;;;;;5054907;28;20166;-65
2023/03/19 12:48:31;;;;;;;7.25;6.95;;;21.50;99.90;;;;;;5052639;28;20281;-65
2023/03/19 12:51:04;;;;;;;7.85;7.13;;;21.50;99.90;;;;;;5034425;28;20653;-65
2023/03/19 12:53:51;;;;;;;4.85;4.65;;;21.30;99.90;;;;;;5037321;28;20198;-65
2023/03/19 12:56:31;;;;;;;4.25;4.03;;;21.10;99.90;;;;;;5054443;28;20209;-65
2023/03/19 12:59:24;;;;;;;10.82;10.43;;;20.80;99.90;;;;;;5048201;28;20183;-64
2023/03/19 13:02:19;;;;;;;4.77;4.57;;;20.70;99.90;;;;;;5033842;28;20206;-65